Time;durP1;ratioP1;P1;durP2;ratioP2;P2;SDS_P1;SDS_P2;PMS_P1;PMS_P2;Temp;Humidity;BMP_temperature;BMP_pressure;BME280_temperature;BME280_humidity;BME280_pressure;Samples;Min_cycle;Max_cycle;Signal;HPM_P1;HPM_P2
2023/08/03 00:00:46;;;;;;;1.17;0.80;;;24.50;55.10;;;;;;5148719;27;45296;-70
2023/08/03 00:03:13;;;;;;;1.13;0.70;;;24.50;55.10;;;;;;5148270;27;45301;-70
2023/08/03 00:05:40;;;;;;;1.00;0.90;;;24.50;55.60;;;;;;5148529;27;45436;-70
2023/08/03 00:08:08;;;;;;;1.92;1.08;;;24.50;55.10;;;;;;5148167;27;47317;-70
2023/08/03 00:10:35;;;;;;;2.10;0.95;;;24.40;55.00;;;;;;5148374;27;45274;-71
2023/08/03 00:13:02;;;;;;;1.95;0.95;;;24.40;55.60;;;;;;5148321;27;45251;-70
2023/08/03 00:15:28;;;;;;;1.50;0.85;;;24.40;55.00;;;;;;5148140;27;45325;-70
2023/08/03 00:17:55;;;;;;;0.98;0.88;;;24.40;55.10;;;;;;5147991;27;46740;-70
2023/08/03 00:20:22;;;;;;;1.65;1.02;;;24.40;55.10;;;;;;5147461;27;45334;-70
2023/08/03 00:22:49;;;;;;;1.73;0.98;;;24.40;55.10;;;;;;5148086;27;45402;-70
2023/08/03 00:25:17;;;;;;;1.45;0.75;;;24.30;55.10;;;;;;5148360;27;45402;-70
2023/08/03 00:27:44;;;;;;;1.75;0.63;;;24.30;55.60;;;;;;5148041;27;45306;-70
2023/08/03 00:30:11;;;;;;;1.20;0.82;;;24.30;55.00;;;;;;5148069;27;45278;-71
2023/08/03 00:32:38;;;;;;;1.15;0.90;;;24.30;55.00;;;;;;5147969;27;45294;-70
2023/08/03 00:35:06;;;;;;;0.98;0.88;;;24.30;55.10;;;;;;5148064;27;45411;-70
2023/08/03 00:37:33;;;;;;;1.00;0.77;;;24.30;55.00;;;;;;5147941;27;46394;-70
2023/08/03 00:39:59;;;;;;;1.48;0.70;;;24.30;55.10;;;;;;5147803;27;45166;-70
2023/08/03 00:42:27;;;;;;;2.80;1.13;;;24.30;55.00;;;;;;5148018;27;45534;-70
2023/08/03 00:44:54;;;;;;;1.35;0.80;;;24.30;55.00;;;;;;5148065;27;45316;-70
2023/08/03 00:47:21;;;;;;;1.55;0.90;;;24.30;55.00;;;;;;5147882;27;46458;-70
2023/08/03 00:49:48;;;;;;;2.42;1.02;;;24.30;54.90;;;;;;5147827;27;45245;-70
2023/08/03 00:52:15;;;;;;;1.13;0.90;;;24.20;54.90;;;;;;5147907;27;45601;-70
2023/08/03 00:54:43;;;;;;;1.52;1.10;;;24.20;55.50;;;;;;5147431;27;45481;-70
2023/08/03 00:57:09;;;;;;;2.67;0.80;;;24.20;55.00;;;;;;5147402;27;45443;-70
2023/08/03 00:59:38;;;;;;;1.48;0.70;;;24.20;54.90;;;;;;5147653;27;45260;-70
2023/08/03 01:02:05;;;;;;;0.80;0.70;;;24.20;54.80;;;;;;5147795;27;45269;-70
2023/08/03 01:04:32;;;;;;;1.45;0.80;;;24.20;54.90;;;;;;5147267;27;45286;-70
2023/08/03 01:06:58;;;;;;;0.70;0.70;;;24.20;55.00;;;;;;5147505;27;45377;-70
2023/08/03 01:09:24;;;;;;;1.58;0.80;;;24.20;54.90;;;;;;5147790;27;45412;-70
2023/08/03 01:11:51;;;;;;;0.70;0.70;;;24.20;54.90;;;;;;5147834;27;45329;-70
2023/08/03 01:14:18;;;;;;;1.92;0.95;;;24.10;54.80;;;;;;5147527;27;45398;-71
2023/08/03 01:16:46;;;;;;;1.55;1.00;;;24.10;54.90;;;;;;5147570;27;45325;-70
2023/08/03 01:19:13;;;;;;;1.38;1.00;;;24.10;54.90;;;;;;5147222;27;45420;-70
2023/08/03 01:21:41;;;;;;;1.05;0.90;;;24.10;54.80;;;;;;5147565;27;45368;-70
2023/08/03 01:24:10;;;;;;;0.80;0.73;;;24.10;54.80;;;;;;5147285;27;45565;-71
2023/08/03 01:26:37;;;;;;;1.10;0.88;;;24.10;54.80;;;;;;5149170;27;46474;-70
2023/08/03 01:29:04;;;;;;;1.77;0.77;;;24.10;54.70;;;;;;5147921;27;45365;-70
2023/08/03 01:31:30;;;;;;;0.80;0.70;;;24.10;54.70;;;;;;5151083;27;45367;-70
2023/08/03 01:34:02;;;;;;;2.55;0.80;;;24.10;54.80;;;;;;5151021;27;45442;-70
2023/08/03 01:36:29;;;;;;;1.77;0.90;;;24.10;54.80;;;;;;5150866;27;45381;-70
2023/08/03 01:38:56;;;;;;;1.02;0.93;;;24.10;54.80;;;;;;5150716;27;45266;-70
2023/08/03 01:41:24;;;;;;;3.03;1.30;;;24.00;54.60;;;;;;5150753;27;45203;-70
2023/08/03 01:43:55;;;;;;;1.60;1.02;;;24.00;54.60;;;;;;5146621;27;45376;-70
2023/08/03 01:46:22;;;;;;;1.25;1.15;;;24.00;54.60;;;;;;5150332;27;46420;-71
2023/08/03 01:48:48;;;;;;;1.63;0.90;;;24.00;54.70;;;;;;5150639;27;45267;-69
2023/08/03 01:51:15;;;;;;;1.23;0.80;;;24.00;54.60;;;;;;5150332;27;45438;-70
2023/08/03 01:53:42;;;;;;;0.93;0.85;;;24.00;54.60;;;;;;5150210;27;45367;-70
2023/08/03 01:56:09;;;;;;;1.00;0.80;;;24.00;54.60;;;;;;5150290;27;46419;-70
2023/08/03 01:58:37;;;;;;;1.38;0.60;;;24.00;54.50;;;;;;5150484;27;45300;-70
2023/08/03 02:01:04;;;;;;;1.15;0.98;;;24.00;54.60;;;;;;5150788;27;45221;-70
2023/08/03 02:03:31;;;;;;;2.60;0.90;;;24.00;54.60;;;;;;5150626;27;45373;-70
2023/08/03 02:05:57;;;;;;;1.77;0.70;;;24.00;54.60;;;;;;5150301;27;47328;-70
2023/08/03 02:08:24;;;;;;;1.98;1.13;;;24.00;54.50;;;;;;5150296;27;45364;-70
2023/08/03 02:10:51;;;;;;;1.25;0.70;;;23.90;54.10;;;;;;5150310;27;45409;-70
2023/08/03 02:13:18;;;;;;;1.40;0.70;;;23.90;54.30;;;;;;5150461;27;45417;-70
2023/08/03 02:15:46;;;;;;;2.03;0.65;;;23.90;54.40;;;;;;5150000;27;46318;-71
2023/08/03 02:18:13;;;;;;;0.98;0.90;;;23.90;54.50;;;;;;5149994;27;45323;-70
2023/08/03 02:20:39;;;;;;;1.35;1.00;;;23.90;54.50;;;;;;5150302;27;45341;-70
2023/08/03 02:23:06;;;;;;;3.13;0.82;;;23.90;54.30;;;;;;5150403;27;45559;-70
2023/08/03 02:25:33;;;;;;;0.90;0.65;;;23.80;54.40;;;;;;5149857;27;46612;-70
2023/08/03 02:28:00;;;;;;;2.03;0.90;;;23.80;54.30;;;;;;5150082;27;45256;-70
2023/08/03 02:30:27;;;;;;;2.90;0.80;;;23.80;54.30;;;;;;5150098;27;45277;-70
2023/08/03 02:32:55;;;;;;;2.55;0.65;;;23.80;54.30;;;;;;5150151;27;45303;-70
2023/08/03 02:35:22;;;;;;;1.90;0.82;;;23.80;54.30;;;;;;5149044;27;46399;-71
2023/08/03 02:37:49;;;;;;;3.50;1.33;;;23.80;54.40;;;;;;5149372;27;45372;-70
2023/08/03 02:40:16;;;;;;;1.23;0.70;;;23.80;54.40;;;;;;5150026;27;45424;-70
2023/08/03 02:42:42;;;;;;;1.50;1.00;;;23.80;54.40;;;;;;5150078;27;45372;-70
2023/08/03 02:45:11;;;;;;;0.88;0.68;;;23.80;54.30;;;;;;5149622;27;45469;-70
2023/08/03 02:47:38;;;;;;;2.33;1.00;;;23.80;54.40;;;;;;5149505;27;45332;-70
2023/08/03 02:50:07;;;;;;;0.93;0.60;;;23.80;54.30;;;;;;5149963;27;45367;-70
2023/08/03 02:52:34;;;;;;;0.68;0.68;;;23.80;54.40;;;;;;5149927;27;45342;-70
2023/08/03 02:55:00;;;;;;;1.02;0.80;;;23.80;54.30;;;;;;5149129;27;45321;-70
2023/08/03 02:57:27;;;;;;;1.70;0.85;;;23.80;54.30;;;;;;5149702;27;45370;-70
2023/08/03 02:59:54;;;;;;;2.03;1.00;;;23.70;54.30;;;;;;5149596;27;45310;-70
2023/08/03 03:02:21;;;;;;;1.15;0.85;;;23.80;54.40;;;;;;5149665;27;45320;-70
2023/08/03 03:04:49;;;;;;;3.17;0.90;;;23.70;54.30;;;;;;5149019;27;46402;-70
2023/08/03 03:07:17;;;;;;;2.67;0.90;;;23.70;54.30;;;;;;5149346;27;45288;-70
2023/08/03 03:09:44;;;;;;;0.93;0.63;;;23.70;54.30;;;;;;5149533;27;44619;-70
2023/08/03 03:12:11;;;;;;;0.88;0.60;;;23.70;54.40;;;;;;5149413;27;45424;-70
2023/08/03 03:14:38;;;;;;;2.72;0.90;;;23.70;54.30;;;;;;5148834;27;47393;-70
2023/08/03 03:17:05;;;;;;;0.60;0.60;;;23.70;54.30;;;;;;5149243;27;45301;-69
2023/08/03 03:19:32;;;;;;;0.60;0.60;;;23.70;54.30;;;;;;5148780;27;45370;-70
2023/08/03 03:21:58;;;;;;;3.83;0.75;;;23.70;54.30;;;;;;5149108;27;45391;-70
2023/08/03 03:24:27;;;;;;;0.80;0.57;;;23.70;54.90;;;;;;5148844;27;46473;-70
2023/08/03 03:26:54;;;;;;;2.05;0.80;;;23.70;54.30;;;;;;5148911;27;45384;-70
2023/08/03 03:29:21;;;;;;;0.95;0.68;;;23.70;54.30;;;;;;5148795;27;45155;-70
2023/08/03 03:31:47;;;;;;;1.10;0.77;;;23.60;54.30;;;;;;5149136;27;45395;-70
2023/08/03 03:34:14;;;;;;;2.35;1.10;;;23.60;54.30;;;;;;5148737;27;45618;-70
2023/08/03 03:36:41;;;;;;;1.20;0.80;;;23.60;54.30;;;;;;5148703;27;45394;-70
2023/08/03 03:39:08;;;;;;;0.93;0.70;;;23.60;54.90;;;;;;5148861;27;45274;-70
2023/08/03 03:41:36;;;;;;;0.80;0.80;;;23.60;54.30;;;;;;5149100;27;45363;-70
2023/08/03 03:44:03;;;;;;;3.85;0.75;;;23.60;54.30;;;;;;5142288;27;46385;-70
2023/08/03 03:46:30;;;;;;;1.85;1.10;;;23.60;54.40;;;;;;5148711;27;45253;-70
2023/08/03 03:48:56;;;;;;;0.60;0.60;;;23.60;54.30;;;;;;5147907;27;45363;-70
2023/08/03 03:51:23;;;;;;;1.10;0.68;;;23.50;54.30;;;;;;5148840;27;45453;-70
2023/08/03 03:53:50;;;;;;;1.90;1.23;;;23.60;54.30;;;;;;5148145;27;46721;-70
2023/08/03 03:56:17;;;;;;;1.30;0.80;;;23.50;54.20;;;;;;5148864;27;45365;-70
2023/08/03 03:58:45;;;;;;;0.45;0.43;;;23.50;54.20;;;;;;5148482;27;45336;-70
2023/08/03 04:01:12;;;;;;;1.85;0.73;;;23.50;54.20;;;;;;5148839;27;45349;-70
2023/08/03 04:03:39;;;;;;;1.83;0.70;;;23.60;54.20;;;;;;5147749;27;46411;-70
2023/08/03 04:06:05;;;;;;;0.90;0.75;;;23.50;54.20;;;;;;5148399;27;45332;-70
2023/08/03 04:08:32;;;;;;;2.05;0.85;;;23.50;54.10;;;;;;5148700;27;45239;-70
2023/08/03 04:10:59;;;;;;;1.15;0.63;;;23.50;54.20;;;;;;5148800;27;45244;-70
2023/08/03 04:13:26;;;;;;;0.80;0.68;;;23.50;54.20;;;;;;5148197;27;46288;-70
2023/08/03 04:15:54;;;;;;;1.30;0.85;;;23.50;54.10;;;;;;5148190;27;45347;-70
2023/08/03 04:18:21;;;;;;;1.27;0.88;;;23.50;54.10;;;;;;5148485;27;45319;-70
2023/08/03 04:20:48;;;;;;;0.65;0.60;;;23.50;54.10;;;;;;5148552;27;45404;-70
2023/08/03 04:23:14;;;;;;;4.57;0.82;;;23.50;54.10;;;;;;5148337;27;45413;-70
2023/08/03 04:25:41;;;;;;;1.98;0.73;;;23.50;53.90;;;;;;5148126;27;45265;-70
2023/08/03 04:28:08;;;;;;;0.80;0.60;;;23.50;54.60;;;;;;5148385;27;45388;-70
2023/08/03 04:30:35;;;;;;;3.22;0.95;;;23.50;54.10;;;;;;5148469;27;45351;-70
2023/08/03 04:33:03;;;;;;;0.75;0.75;;;23.50;54.10;;;;;;5148132;27;45282;-70
2023/08/03 04:35:30;;;;;;;1.67;0.90;;;23.50;54.10;;;;;;5147941;27;45335;-70
2023/08/03 04:37:57;;;;;;;0.80;0.70;;;23.50;54.10;;;;;;5148309;27;45341;-70
2023/08/03 04:40:23;;;;;;;2.42;0.70;;;23.50;54.10;;;;;;5148398;27;45472;-70
2023/08/03 04:42:50;;;;;;;1.60;0.80;;;23.50;54.00;;;;;;5148022;27;45372;-70
2023/08/03 04:45:17;;;;;;;1.25;0.50;;;23.50;54.00;;;;;;5147769;27;45271;-69
2023/08/03 04:47:44;;;;;;;0.90;0.65;;;23.50;54.00;;;;;;5144857;27;45296;-70
2023/08/03 04:50:12;;;;;;;1.73;0.82;;;23.50;54.00;;;;;;5148394;27;45256;-70
2023/08/03 04:52:39;;;;;;;1.42;0.70;;;23.50;53.90;;;;;;5147864;27;45406;-70
2023/08/03 04:55:06;;;;;;;1.63;0.75;;;23.40;53.90;;;;;;5147740;27;45368;-70
2023/08/03 04:57:33;;;;;;;1.00;0.60;;;23.40;53.90;;;;;;5148276;27;45339;-70
2023/08/03 05:00:00;;;;;;;2.30;0.80;;;23.40;53.90;;;;;;5148983;27;45410;-70
2023/08/03 05:02:27;;;;;;;0.95;0.75;;;23.40;53.90;;;;;;5151168;27;47295;-69
2023/08/03 05:04:54;;;;;;;2.35;0.73;;;23.40;53.90;;;;;;5151285;27;45230;-70
2023/08/03 05:07:22;;;;;;;0.82;0.68;;;23.40;53.90;;;;;;5151350;27;45448;-70
2023/08/03 05:09:49;;;;;;;3.20;0.73;;;23.40;53.80;;;;;;5151657;27;45374;-70
2023/08/03 05:12:16;;;;;;;1.17;0.85;;;23.40;53.80;;;;;;5151011;27;46390;-70
2023/08/03 05:14:42;;;;;;;1.77;0.63;;;23.40;53.80;;;;;;5150971;27;45248;-70
2023/08/03 05:17:09;;;;;;;2.30;0.80;;;23.40;53.80;;;;;;5151250;27;45386;-70
2023/08/03 05:19:36;;;;;;;0.73;0.70;;;23.40;53.80;;;;;;5151445;27;45485;-70
2023/08/03 05:22:03;;;;;;;1.05;0.80;;;23.40;53.80;;;;;;5151209;27;45309;-70
2023/08/03 05:24:31;;;;;;;1.80;0.60;;;23.40;53.80;;;;;;5151041;27;45332;-70
2023/08/03 05:26:58;;;;;;;1.38;0.63;;;23.40;53.80;;;;;;5150728;27;45251;-70
2023/08/03 05:29:25;;;;;;;3.33;0.60;;;23.40;53.80;;;;;;5150915;27;45319;-70
2023/08/03 05:31:52;;;;;;;0.82;0.70;;;23.40;53.80;;;;;;5150705;27;46749;-70
2023/08/03 05:34:19;;;;;;;1.02;0.60;;;23.40;53.70;;;;;;5150714;27;45271;-70
2023/08/03 05:36:45;;;;;;;0.73;0.60;;;23.40;53.80;;;;;;5150851;27;45368;-70
2023/08/03 05:39:12;;;;;;;0.73;0.70;;;23.40;53.60;;;;;;5151132;27;45266;-70
2023/08/03 05:41:40;;;;;;;1.00;0.63;;;23.40;53.70;;;;;;5150778;27;47606;-69
2023/08/03 05:44:07;;;;;;;2.17;0.80;;;23.40;53.70;;;;;;5150394;27;45333;-70
2023/08/03 05:46:34;;;;;;;2.03;0.80;;;23.40;53.60;;;;;;5150804;27;45183;-70
2023/08/03 05:49:01;;;;;;;1.13;0.50;;;23.40;53.60;;;;;;5150913;27;45106;-70
2023/08/03 05:51:28;;;;;;;1.63;0.77;;;23.40;53.60;;;;;;5149959;27;46705;-70
2023/08/03 05:53:56;;;;;;;0.65;0.60;;;23.40;53.60;;;;;;5150470;27;45365;-69
2023/08/03 05:56:23;;;;;;;2.47;0.77;;;23.40;53.70;;;;;;5150607;27;45422;-70
2023/08/03 05:58:51;;;;;;;0.80;0.60;;;23.40;53.60;;;;;;5150569;27;45267;-70
2023/08/03 06:01:19;;;;;;;1.77;0.63;;;23.40;53.60;;;;;;5150210;27;45328;-70
2023/08/03 06:03:46;;;;;;;1.00;0.70;;;23.40;53.60;;;;;;5150472;27;45360;-70
2023/08/03 06:06:15;;;;;;;0.55;0.50;;;23.40;53.60;;;;;;5150539;27;45330;-70
2023/08/03 06:08:44;;;;;;;1.05;0.63;;;23.40;53.60;;;;;;5150667;27;45399;-70
2023/08/03 06:11:10;;;;;;;0.70;0.70;;;23.40;53.50;;;;;;5149823;27;47417;-70
2023/08/03 06:13:37;;;;;;;3.30;1.00;;;23.40;53.50;;;;;;5149991;27;45366;-70
2023/08/03 06:16:08;;;;;;;1.13;0.57;;;23.40;53.50;;;;;;5149471;27;45268;-69
2023/08/03 06:18:36;;;;;;;1.20;0.50;;;23.40;53.30;;;;;;5149679;27;45347;-70
2023/08/03 06:21:03;;;;;;;1.27;0.70;;;23.40;53.50;;;;;;5149985;27;45521;-70
2023/08/03 06:23:29;;;;;;;0.47;0.45;;;23.40;53.40;;;;;;5149737;27;45272;-70
2023/08/03 06:25:58;;;;;;;0.57;0.57;;;23.40;53.40;;;;;;5149965;27;45283;-70
2023/08/03 06:28:25;;;;;;;1.15;0.60;;;23.40;53.40;;;;;;5150004;27;45416;-70
2023/08/03 06:30:52;;;;;;;1.92;0.60;;;23.40;53.40;;;;;;5149776;27;47319;-70
2023/08/03 06:33:22;;;;;;;2.05;0.65;;;23.40;53.40;;;;;;5149525;27;45310;-70
2023/08/03 06:35:50;;;;;;;0.88;0.52;;;23.40;53.40;;;;;;5149861;27;45272;-70
2023/08/03 06:38:17;;;;;;;0.70;0.50;;;23.40;53.30;;;;;;5150142;27;45490;-70
2023/08/03 06:40:44;;;;;;;1.20;0.43;;;23.40;53.40;;;;;;5149465;27;46669;-70
2023/08/03 06:43:11;;;;;;;1.70;0.60;;;23.40;53.40;;;;;;5150045;27;45244;-70
2023/08/03 06:45:38;;;;;;;1.05;0.32;;;23.40;53.30;;;;;;5130055;27;45379;-70
2023/08/03 06:48:05;;;;;;;0.47;0.47;;;23.40;53.30;;;;;;5149954;27;45321;-70
2023/08/03 06:50:34;;;;;;;1.10;0.52;;;23.40;53.30;;;;;;5149858;27;45349;-70
2023/08/03 06:53:01;;;;;;;1.63;0.95;;;23.40;53.20;;;;;;5149385;27;45393;-70
2023/08/03 06:55:29;;;;;;;0.68;0.47;;;23.40;53.20;;;;;;5149509;27;45444;-70
2023/08/03 06:57:56;;;;;;;4.50;0.85;;;23.50;53.20;;;;;;5149710;27;45475;-70
2023/08/03 07:00:23;;;;;;;0.68;0.60;;;23.50;53.20;;;;;;5149349;27;46391;-70
2023/08/03 07:02:50;;;;;;;1.38;0.50;;;23.50;53.20;;;;;;5148985;27;45301;-69
2023/08/03 07:05:17;;;;;;;1.60;0.75;;;23.50;53.20;;;;;;5148935;27;45309;-70
2023/08/03 07:07:45;;;;;;;1.27;0.60;;;23.50;53.40;;;;;;5149631;27;45405;-70
2023/08/03 07:10:12;;;;;;;1.73;0.60;;;23.50;53.10;;;;;;5149229;27;46402;-70
2023/08/03 07:12:39;;;;;;;0.90;0.60;;;23.50;53.10;;;;;;5149136;27;45125;-70
2023/08/03 07:15:07;;;;;;;1.27;0.60;;;23.60;53.00;;;;;;5148785;27;45405;-70
2023/08/03 07:17:33;;;;;;;1.27;0.68;;;23.50;52.90;;;;;;5149402;27;45550;-71
2023/08/03 07:20:00;;;;;;;1.48;0.60;;;23.60;52.90;;;;;;5149228;27;45305;-70
2023/08/03 07:22:27;;;;;;;0.60;0.50;;;23.60;52.80;;;;;;5149150;27;45500;-71
2023/08/03 07:24:55;;;;;;;1.38;0.60;;;23.60;52.90;;;;;;5147527;27;45258;-70
2023/08/03 07:27:22;;;;;;;0.75;0.45;;;23.60;52.90;;;;;;5148905;27;44795;-70
2023/08/03 07:29:49;;;;;;;0.35;0.35;;;23.60;52.90;;;;;;5148391;27;45436;-69
2023/08/03 07:32:16;;;;;;;0.77;0.40;;;23.60;52.90;;;;;;5148383;27;45377;-69
2023/08/03 07:34:43;;;;;;;3.30;0.60;;;23.60;52.90;;;;;;5148340;27;45385;-70
2023/08/03 07:37:10;;;;;;;3.15;0.60;;;23.60;52.90;;;;;;5149157;27;45302;-70
2023/08/03 07:39:36;;;;;;;0.90;0.50;;;23.60;52.90;;;;;;5148871;27;46365;-70
2023/08/03 07:42:05;;;;;;;1.63;0.57;;;23.60;52.90;;;;;;5148943;27;45333;-68
2023/08/03 07:44:32;;;;;;;2.10;0.77;;;23.70;52.90;;;;;;5148500;27;45422;-69
2023/08/03 07:46:59;;;;;;;0.88;0.57;;;23.70;52.90;;;;;;5148282;27;45419;-69
2023/08/03 07:49:26;;;;;;;1.27;0.60;;;23.70;52.90;;;;;;5148554;27;45302;-69
2023/08/03 07:51:52;;;;;;;1.20;0.60;;;23.70;52.80;;;;;;5149139;27;45347;-69
2023/08/03 07:54:19;;;;;;;1.60;0.98;;;23.70;52.70;;;;;;5148656;27;45347;-69
2023/08/03 07:56:46;;;;;;;2.78;0.70;;;23.70;52.70;;;;;;5148796;27;45350;-69
2023/08/03 07:59:14;;;;;;;3.25;0.75;;;23.70;52.60;;;;;;5148504;27;46324;-69
2023/08/03 08:01:43;;;;;;;0.47;0.47;;;23.80;52.60;;;;;;5148500;27;45339;-69
2023/08/03 08:04:10;;;;;;;1.10;0.50;;;23.80;52.60;;;;;;5148689;27;45505;-70
2023/08/03 08:06:37;;;;;;;2.22;0.70;;;23.80;52.50;;;;;;5149015;27;45418;-70
2023/08/03 08:09:04;;;;;;;1.08;0.60;;;23.80;52.50;;;;;;5148085;27;45481;-70
2023/08/03 08:11:31;;;;;;;1.83;0.68;;;23.80;52.50;;;;;;5148162;27;45242;-69
2023/08/03 08:13:59;;;;;;;0.77;0.63;;;23.80;52.50;;;;;;5148362;27;45272;-69
2023/08/03 08:16:27;;;;;;;0.60;0.60;;;23.80;52.40;;;;;;5148547;27;45387;-69
2023/08/03 08:18:54;;;;;;;0.63;0.63;;;23.80;52.30;;;;;;5147997;27;46719;-69
2023/08/03 08:21:21;;;;;;;0.60;0.50;;;23.80;52.40;;;;;;5148294;27;45270;-69
2023/08/03 08:23:48;;;;;;;3.17;0.70;;;23.90;52.40;;;;;;5147825;27;45322;-69
2023/08/03 08:26:15;;;;;;;2.15;0.60;;;23.90;52.30;;;;;;5148236;27;45321;-69
2023/08/03 08:28:44;;;;;;;3.65;0.82;;;23.80;52.90;;;;;;5147785;27;46377;-70
2023/08/03 08:31:10;;;;;;;1.45;0.70;;;23.90;52.30;;;;;;5147979;27;45323;-68
2023/08/03 08:33:39;;;;;;;1.75;0.60;;;23.90;52.30;;;;;;5147486;27;45303;-69
2023/08/03 08:36:06;;;;;;;2.25;0.90;;;23.90;52.30;;;;;;5150567;27;45361;-69
2023/08/03 08:38:33;;;;;;;0.73;0.60;;;23.90;52.30;;;;;;5151324;27;45415;-69
2023/08/03 08:41:01;;;;;;;3.15;0.82;;;23.90;52.30;;;;;;5151497;27;45486;-69
2023/08/03 08:43:28;;;;;;;1.30;0.75;;;23.90;52.20;;;;;;5151623;27;45349;-69
2023/08/03 08:45:55;;;;;;;0.57;0.55;;;23.90;52.20;;;;;;5151745;27;45248;-69
2023/08/03 08:48:22;;;;;;;0.85;0.65;;;23.90;52.20;;;;;;5151342;27;45465;-69
2023/08/03 08:50:50;;;;;;;2.67;0.57;;;23.90;52.20;;;;;;5151029;27;45323;-69
2023/08/03 08:53:17;;;;;;;3.13;0.90;;;24.00;52.30;;;;;;5161766;27;45527;-69
2023/08/03 08:55:46;;;;;;;0.60;0.52;;;23.90;52.20;;;;;;5154263;27;45379;-68
2023/08/03 08:58:13;;;;;;;1.85;0.70;;;24.00;52.20;;;;;;5151155;27;45622;-69
2023/08/03 09:00:43;;;;;;;1.10;0.85;;;24.00;52.20;;;;;;5151036;27;45314;-68
2023/08/03 09:03:19;;;;;;;3.20;0.82;;;24.00;52.20;;;;;;5151243;27;45252;-69
2023/08/03 09:05:59;;;;;;;1.73;0.98;;;24.00;52.20;;;;;;5151232;27;45422;-68
2023/08/03 09:08:26;;;;;;;2.78;0.60;;;24.10;52.20;;;;;;5151358;27;45538;-68
2023/08/03 09:10:54;;;;;;;0.98;0.60;;;24.10;52.10;;;;;;5150032;27;45211;-69
2023/08/03 09:13:28;;;;;;;0.65;0.45;;;24.10;52.10;;;;;;5146042;27;45553;-69
2023/08/03 09:15:55;;;;;;;2.45;0.88;;;24.10;52.10;;;;;;5158111;27;45201;-69
2023/08/03 09:18:21;;;;;;;1.42;0.82;;;24.10;52.10;;;;;;5150500;27;45446;-69
2023/08/03 09:20:48;;;;;;;1.23;0.68;;;24.10;52.00;;;;;;5151113;27;45244;-71
2023/08/03 09:23:29;;;;;;;4.68;0.77;;;24.20;52.00;;;;;;5150952;27;45335;-71
2023/08/03 09:25:56;;;;;;;2.85;1.15;;;24.20;52.00;;;;;;5150576;27;45366;-67
2023/08/03 09:28:34;;;;;;;2.65;0.60;;;24.20;52.00;;;;;;5150513;27;46306;-67
2023/08/03 09:31:01;;;;;;;1.20;0.50;;;24.30;52.00;;;;;;5150371;27;45261;-72
2023/08/03 09:33:34;;;;;;;3.08;0.90;;;24.30;51.90;;;;;;5129823;27;45272;-68
2023/08/03 09:36:05;;;;;;;2.92;1.05;;;24.30;51.90;;;;;;5129792;27;45388;-67
2023/08/03 09:38:34;;;;;;;2.15;0.90;;;24.40;51.90;;;;;;5129147;27;45331;-66
2023/08/03 09:41:00;;;;;;;3.97;0.90;;;24.40;51.90;;;;;;5129695;27;45241;-67
2023/08/03 09:43:27;;;;;;;1.42;0.80;;;24.50;52.00;;;;;;5129683;27;45338;-69
2023/08/03 09:45:54;;;;;;;1.70;0.80;;;24.50;52.00;;;;;;5129910;27;45329;-68
2023/08/03 09:48:21;;;;;;;0.98;0.93;;;24.50;51.90;;;;;;5128860;27;45351;-68
2023/08/03 09:50:49;;;;;;;1.77;0.70;;;24.60;51.90;;;;;;5129450;27;45306;-69
2023/08/03 09:53:19;;;;;;;3.03;1.40;;;24.60;51.90;;;;;;5129252;27;45339;-68
2023/08/03 09:55:57;;;;;;;3.88;1.00;;;24.70;51.80;;;;;;5130143;27;45542;-67
2023/08/03 09:58:28;;;;;;;2.70;0.77;;;24.70;51.80;;;;;;5128972;27;47503;-68
2023/08/03 10:00:55;;;;;;;5.45;0.77;;;24.70;51.70;;;;;;5129486;27;45285;-67
2023/08/03 10:03:23;;;;;;;1.73;1.27;;;24.70;51.70;;;;;;5130118;27;45322;-70
2023/08/03 10:05:51;;;;;;;4.55;1.02;;;24.80;52.30;;;;;;5129652;27;45402;-70
2023/08/03 10:08:21;;;;;;;2.28;1.15;;;24.80;51.70;;;;;;5129210;27;46647;-67
2023/08/03 10:10:49;;;;;;;2.03;0.85;;;24.80;51.70;;;;;;5129422;27;45359;-71
2023/08/03 10:13:16;;;;;;;3.40;0.88;;;24.90;51.60;;;;;;5129452;27;45300;-72
2023/08/03 10:15:43;;;;;;;3.95;1.58;;;24.90;51.60;;;;;;5129422;27;45414;-70
2023/08/03 10:18:10;;;;;;;3.08;1.40;;;24.90;51.70;;;;;;5129097;27;45683;-70
2023/08/03 10:20:36;;;;;;;7.50;1.20;;;25.00;51.70;;;;;;5129133;27;45383;-69
2023/08/03 10:23:08;;;;;;;8.15;1.67;;;25.00;51.70;;;;;;5129371;27;45381;-70
2023/08/03 10:25:35;;;;;;;3.70;1.30;;;25.10;51.70;;;;;;5150139;27;45316;-70
2023/08/03 10:28:13;;;;;;;1.63;1.30;;;25.20;51.70;;;;;;5150035;27;45459;-69
2023/08/03 10:31:02;;;;;;;5.78;1.65;;;25.30;51.50;;;;;;5150015;27;45364;-69
2023/08/03 10:34:14;;;;;;;3.20;1.27;;;25.50;51.60;;;;;;5149835;27;45298;-69
2023/08/03 10:36:47;;;;;;;3.10;2.40;;;25.60;51.20;;;;;;5150110;27;45426;-69
2023/08/03 10:39:16;;;;;;;2.67;2.45;;;25.80;51.30;;;;;;5149523;27;46852;-72
2023/08/03 10:41:44;;;;;;;3.25;1.60;;;25.90;50.90;;;;;;5149606;27;45213;-69
2023/08/03 10:44:26;;;;;;;6.13;1.85;;;25.90;50.70;;;;;;5149555;27;45205;-69
2023/08/03 10:46:53;;;;;;;3.28;1.27;;;26.00;50.70;;;;;;5149841;27;45221;-68
2023/08/03 10:49:49;;;;;;;4.57;1.30;;;26.00;50.50;;;;;;5156444;27;45447;-68
2023/08/03 10:52:18;;;;;;;6.68;1.55;;;26.00;50.40;;;;;;5170064;27;45297;-70
2023/08/03 10:54:45;;;;;;;5.40;1.23;;;26.10;50.30;;;;;;5170464;27;45409;-70
2023/08/03 10:57:12;;;;;;;4.15;2.00;;;26.20;50.10;;;;;;5170790;27;45476;-70
2023/08/03 10:59:41;;;;;;;4.25;1.02;;;26.20;49.90;;;;;;5170137;27;46396;-71
2023/08/03 11:02:13;;;;;;;4.43;1.10;;;26.20;49.90;;;;;;5170435;27;45357;-71
2023/08/03 11:04:41;;;;;;;1.98;1.08;;;26.20;50.00;;;;;;5170459;27;45347;-71
2023/08/03 11:07:09;;;;;;;5.97;1.33;;;26.20;50.20;;;;;;5170745;27;45467;-70
2023/08/03 11:09:36;;;;;;;4.53;1.58;;;26.20;50.30;;;;;;5169903;27;45533;-70
2023/08/03 11:12:04;;;;;;;2.25;1.10;;;26.20;50.20;;;;;;5144920;27;45397;-69
2023/08/03 11:14:30;;;;;;;1.00;0.85;;;26.20;50.40;;;;;;5148474;27;45271;-70
2023/08/03 11:16:59;;;;;;;2.67;1.30;;;26.30;50.40;;;;;;5149579;27;45213;-71
2023/08/03 11:19:32;;;;;;;0.80;0.80;;;26.40;50.20;;;;;;5149120;27;46793;-69
2023/08/03 11:21:59;;;;;;;1.67;0.90;;;26.50;49.90;;;;;;5149251;27;45401;-70
2023/08/03 11:24:29;;;;;;;1.40;1.00;;;26.40;50.10;;;;;;5148947;27;45429;-70
2023/08/03 11:26:56;;;;;;;3.78;1.20;;;26.40;50.00;;;;;;5149066;27;45237;-67
2023/08/03 11:29:22;;;;;;;2.05;0.95;;;26.40;50.20;;;;;;5148367;27;46403;-70
2023/08/03 11:31:50;;;;;;;1.52;1.00;;;26.40;50.40;;;;;;5148925;27;45267;-70
2023/08/03 11:34:19;;;;;;;1.77;0.85;;;26.50;50.50;;;;;;5149257;27;45429;-69
2023/08/03 11:36:47;;;;;;;1.38;0.75;;;26.60;50.30;;;;;;5149182;27;45356;-70
2023/08/03 11:39:14;;;;;;;1.38;0.98;;;26.70;50.20;;;;;;5148177;27;46648;-67
2023/08/03 11:41:41;;;;;;;1.38;1.00;;;26.80;49.90;;;;;;5148713;27;45323;-72
2023/08/03 11:44:08;;;;;;;1.20;0.82;;;26.80;49.70;;;;;;5151235;27;45330;-72
2023/08/03 11:46:35;;;;;;;2.05;0.77;;;26.90;49.50;;;;;;5149163;27;45337;-70
2023/08/03 11:49:02;;;;;;;2.15;0.95;;;27.00;49.80;;;;;;5148453;27;46673;-70
2023/08/03 11:51:35;;;;;;;1.95;0.80;;;27.10;49.50;;;;;;5148693;27;45358;-72
2023/08/03 11:54:03;;;;;;;0.90;0.88;;;27.10;49.20;;;;;;5148591;27;45521;-70
2023/08/03 11:56:30;;;;;;;4.32;1.08;;;27.10;49.20;;;;;;5148829;27;45368;-70
2023/08/03 11:58:56;;;;;;;1.88;0.80;;;27.20;49.20;;;;;;5148343;27;45471;-69
2023/08/03 12:01:25;;;;;;;2.90;0.70;;;27.20;47.70;;;;;;5147824;27;45335;-68
2023/08/03 12:03:56;;;;;;;2.05;0.80;;;27.20;46.90;;;;;;5147900;27;45298;-70
2023/08/03 12:06:23;;;;;;;4.85;0.80;;;27.30;47.00;;;;;;5146980;27;45249;-71
2023/08/03 12:08:51;;;;;;;1.88;0.68;;;27.40;46.50;;;;;;5148458;27;45252;-71
2023/08/03 12:11:18;;;;;;;1.27;0.68;;;27.40;46.20;;;;;;5147472;27;45354;-70
2023/08/03 12:13:45;;;;;;;1.27;0.82;;;27.50;46.40;;;;;;5148491;27;45370;-70
2023/08/03 12:16:12;;;;;;;0.73;0.65;;;27.40;46.50;;;;;;5148791;27;45308;-71
2023/08/03 12:18:39;;;;;;;1.35;0.70;;;27.40;47.00;;;;;;5147997;27;45385;-70
2023/08/03 12:21:06;;;;;;;1.60;0.60;;;27.30;47.50;;;;;;5148354;27;45322;-71
2023/08/03 12:23:34;;;;;;;1.45;0.80;;;27.30;47.00;;;;;;5148241;27;45192;-70
2023/08/03 12:26:02;;;;;;;5.78;0.73;;;27.20;47.30;;;;;;5148368;27;45427;-70
2023/08/03 12:28:29;;;;;;;1.88;0.70;;;27.10;47.80;;;;;;5148250;27;47713;-75
2023/08/03 12:30:56;;;;;;;6.65;1.00;;;27.10;47.50;;;;;;5148208;27;45322;-70
2023/08/03 12:33:22;;;;;;;2.88;1.05;;;27.10;47.80;;;;;;5148232;27;45318;-73
2023/08/03 12:35:49;;;;;;;4.68;1.30;;;27.10;48.30;;;;;;5169429;27;45320;-72
2023/08/03 12:38:16;;;;;;;2.80;1.50;;;27.10;48.20;;;;;;5168871;27;45600;-72
2023/08/03 12:40:43;;;;;;;4.20;1.30;;;27.10;47.90;;;;;;5169208;27;45386;-74
2023/08/03 12:43:11;;;;;;;5.22;1.10;;;27.10;47.80;;;;;;5169254;27;45253;-76
2023/08/03 12:45:38;;;;;;;5.57;0.82;;;27.10;48.00;;;;;;5149303;27;45754;-75
2023/08/03 12:48:05;;;;;;;1.77;0.80;;;27.10;47.50;;;;;;5147482;27;47322;-76
2023/08/03 12:50:32;;;;;;;2.53;0.73;;;27.10;46.60;;;;;;5142453;27;45603;-71